sensor_id;sensor_type;location;lat;lon;timestamp;temperature;humidity
7002;DHT22;3541;53.230;10.518;2023-03-30T00:00:31;9.40;99.90
7002;DHT22;3541;53.230;10.518;2023-03-30T00:02:58;9.40;99.90
7002;DHT22;3541;53.230;10.518;2023-03-30T00:05:27;9.40;99.90
7002;DHT22;3541;53.230;10.518;2023-03-30T00:07:54;9.50;99.90
7002;DHT22;3541;53.230;10.518;2023-03-30T00:10:20;9.40;99.90
7002;DHT22;3541;53.230;10.518;2023-03-30T00:12:49;9.40;99.90
7002;DHT22;3541;53.230;10.518;2023-03-30T00:15:19;9.40;99.90
7002;DHT22;3541;53.230;10.518;2023-03-30T00:17:48;9.40;99.90
7002;DHT22;3541;53.230;10.518;2023-03-30T00:20:19;9.40;99.90
7002;DHT22;3541;53.230;10.518;2023-03-30T00:22:46;9.50;99.90
7002;DHT22;3541;53.230;10.518;2023-03-30T00:25:14;9.50;99.90
7002;DHT22;3541;53.230;10.518;2023-03-30T00:27:41;9.50;99.90
7002;DHT22;3541;53.230;10.518;2023-03-30T00:30:11;9.50;99.90
7002;DHT22;3541;53.230;10.518;2023-03-30T00:32:38;9.60;99.90
7002;DHT22;3541;53.230;10.518;2023-03-30T00:35:06;9.60;99.90
7002;DHT22;3541;53.230;10.518;2023-03-30T00:37:33;9.60;99.90
7002;DHT22;3541;53.230;10.518;2023-03-30T00:40:02;9.60;99.90
7002;DHT22;3541;53.230;10.518;2023-03-30T00:42:30;9.60;99.90
7002;DHT22;3541;53.230;10.518;2023-03-30T00:45:09;9.60;99.90
7002;DHT22;3541;53.230;10.518;2023-03-30T00:47:42;9.70;99.90
7002;DHT22;3541;53.230;10.518;2023-03-30T00:50:12;9.60;99.90
7002;DHT22;3541;53.230;10.518;2023-03-30T00:52:41;9.60;99.90
7002;DHT22;3541;53.230;10.518;2023-03-30T00:55:09;9.60;99.90
7002;DHT22;3541;53.230;10.518;2023-03-30T00:57:38;9.60;99.90
7002;DHT22;3541;53.230;10.518;2023-03-30T01:00:07;9.60;99.90
7002;DHT22;3541;53.230;10.518;2023-03-30T01:02:40;9.60;99.90
7002;DHT22;3541;53.230;10.518;2023-03-30T01:05:08;9.70;99.90
7002;DHT22;3541;53.230;10.518;2023-03-30T01:07:38;9.60;99.90
7002;DHT22;3541;53.230;10.518;2023-03-30T01:10:08;9.60;99.90
7002;DHT22;3541;53.230;10.518;2023-03-30T01:12:35;9.50;99.90
7002;DHT22;3541;53.230;10.518;2023-03-30T01:15:04;9.50;99.90
7002;DHT22;3541;53.230;10.518;2023-03-30T01:17:34;9.50;99.90
7002;DHT22;3541;53.230;10.518;2023-03-30T01:20:46;9.50;99.90
7002;DHT22;3541;53.230;10.518;2023-03-30T01:23:37;9.50;99.90
7002;DHT22;3541;53.230;10.518;2023-03-30T01:26:39;9.50;99.90
7002;DHT22;3541;53.230;10.518;2023-03-30T01:29:14;9.50;99.90
7002;DHT22;3541;53.230;10.518;2023-03-30T01:32:01;9.50;99.90
7002;DHT22;3541;53.230;10.518;2023-03-30T01:34:50;9.50;99.90
7002;DHT22;3541;53.230;10.518;2023-03-30T01:37:45;9.50;99.90
7002;DHT22;3541;53.230;10.518;2023-03-30T01:40:21;9.50;99.90
7002;DHT22;3541;53.230;10.518;2023-03-30T01:42:55;9.50;99.90
7002;DHT22;3541;53.230;10.518;2023-03-30T01:45:29;9.50;99.90
7002;DHT22;3541;53.230;10.518;2023-03-30T01:48:06;9.50;99.90
7002;DHT22;3541;53.230;10.518;2023-03-30T01:50:37;9.50;99.90
7002;DHT22;3541;53.230;10.518;2023-03-30T01:53:10;9.60;99.90
7002;DHT22;3541;53.230;10.518;2023-03-30T01:55:43;9.50;99.90
7002;DHT22;3541;53.230;10.518;2023-03-30T01:58:14;9.60;99.90
7002;DHT22;3541;53.230;10.518;2023-03-30T02:00:44;9.50;99.90
7002;DHT22;3541;53.230;10.518;2023-03-30T02:03:15;9.50;99.90
7002;DHT22;3541;53.230;10.518;2023-03-30T02:05:44;9.50;99.90
7002;DHT22;3541;53.230;10.518;2023-03-30T02:08:15;9.50;99.90
7002;DHT22;3541;53.230;10.518;2023-03-30T02:10:44;9.50;99.90
7002;DHT22;3541;53.230;10.518;2023-03-30T02:13:14;9.50;99.90
7002;DHT22;3541;53.230;10.518;2023-03-30T02:15:45;9.50;99.90
7002;DHT22;3541;53.230;10.518;2023-03-30T02:18:12;9.40;99.90
7002;DHT22;3541;53.230;10.518;2023-03-30T02:20:39;9.40;99.90
7002;DHT22;3541;53.230;10.518;2023-03-30T02:23:07;9.40;99.90
7002;DHT22;3541;53.230;10.518;2023-03-30T02:25:34;9.40;99.90
7002;DHT22;3541;53.230;10.518;2023-03-30T02:28:04;9.40;99.90
7002;DHT22;3541;53.230;10.518;2023-03-30T02:30:32;9.40;99.90
7002;DHT22;3541;53.230;10.518;2023-03-30T02:32:59;9.30;99.90
7002;DHT22;3541;53.230;10.518;2023-03-30T02:38:34;9.30;99.90
7002;DHT22;3541;53.230;10.518;2023-03-30T02:41:16;9.30;99.90
7002;DHT22;3541;53.230;10.518;2023-03-30T02:43:56;9.40;99.90
7002;DHT22;3541;53.230;10.518;2023-03-30T02:46:37;9.30;99.90
7002;DHT22;3541;53.230;10.518;2023-03-30T02:49:14;9.30;99.90
7002;DHT22;3541;53.230;10.518;2023-03-30T02:51:47;9.30;99.90
7002;DHT22;3541;53.230;10.518;2023-03-30T02:54:23;9.30;99.90
7002;DHT22;3541;53.230;10.518;2023-03-30T02:56:55;9.30;99.90
7002;DHT22;3541;53.230;10.518;2023-03-30T02:59:29;9.30;99.90
7002;DHT22;3541;53.230;10.518;2023-03-30T03:01:58;9.30;99.90
7002;DHT22;3541;53.230;10.518;2023-03-30T03:04:27;9.30;99.90
7002;DHT22;3541;53.230;10.518;2023-03-30T03:06:59;9.30;99.90
7002;DHT22;3541;53.230;10.518;2023-03-30T03:09:27;9.40;99.90
7002;DHT22;3541;53.230;10.518;2023-03-30T03:11:54;9.40;99.90
7002;DHT22;3541;53.230;10.518;2023-03-30T03:14:21;9.40;99.90
7002;DHT22;3541;53.230;10.518;2023-03-30T03:16:52;9.40;99.90
7002;DHT22;3541;53.230;10.518;2023-03-30T03:19:18;9.40;99.90
7002;DHT22;3541;53.230;10.518;2023-03-30T03:21:45;9.40;99.90
7002;DHT22;3541;53.230;10.518;2023-03-30T03:24:12;9.40;99.90
7002;DHT22;3541;53.230;10.518;2023-03-30T03:26:41;9.40;99.90
7002;DHT22;3541;53.230;10.518;2023-03-30T03:29:08;9.40;99.90
7002;DHT22;3541;53.230;10.518;2023-03-30T03:31:34;9.40;99.90
7002;DHT22;3541;53.230;10.518;2023-03-30T03:34:02;9.40;99.90
7002;DHT22;3541;53.230;10.518;2023-03-30T03:36:29;9.40;99.90
7002;DHT22;3541;53.230;10.518;2023-03-30T03:38:56;9.40;99.90
7002;DHT22;3541;53.230;10.518;2023-03-30T03:41:23;9.40;99.90
7002;DHT22;3541;53.230;10.518;2023-03-30T03:43:50;9.40;99.90
7002;DHT22;3541;53.230;10.518;2023-03-30T03:46:17;9.40;99.90
7002;DHT22;3541;53.230;10.518;2023-03-30T03:48:43;9.40;99.90
7002;DHT22;3541;53.230;10.518;2023-03-30T03:51:11;9.40;99.90
7002;DHT22;3541;53.230;10.518;2023-03-30T03:53:38;9.40;99.90
7002;DHT22;3541;53.230;10.518;2023-03-30T03:56:06;9.40;99.90
7002;DHT22;3541;53.230;10.518;2023-03-30T03:58:32;9.40;99.90
7002;DHT22;3541;53.230;10.518;2023-03-30T04:00:59;9.40;99.90
7002;DHT22;3541;53.230;10.518;2023-03-30T04:03:27;9.40;99.90
7002;DHT22;3541;53.230;10.518;2023-03-30T04:05:56;9.40;99.90
7002;DHT22;3541;53.230;10.518;2023-03-30T04:08:24;9.40;99.90
7002;DHT22;3541;53.230;10.518;2023-03-30T04:10:50;9.40;99.90
7002;DHT22;3541;53.230;10.518;2023-03-30T04:13:17;9.40;99.90
7002;DHT22;3541;53.230;10.518;2023-03-30T04:15:44;9.40;99.90
7002;DHT22;3541;53.230;10.518;2023-03-30T04:18:10;9.40;99.90
7002;DHT22;3541;53.230;10.518;2023-03-30T04:20:37;9.40;99.90
7002;DHT22;3541;53.230;10.518;2023-03-30T04:23:03;9.30;99.90
7002;DHT22;3541;53.230;10.518;2023-03-30T04:25:31;9.30;99.90
7002;DHT22;3541;53.230;10.518;2023-03-30T04:27:58;9.30;99.90
7002;DHT22;3541;53.230;10.518;2023-03-30T04:30:24;9.30;99.90
7002;DHT22;3541;53.230;10.518;2023-03-30T04:32:54;9.30;99.90
7002;DHT22;3541;53.230;10.518;2023-03-30T04:35:29;9.30;99.90
7002;DHT22;3541;53.230;10.518;2023-03-30T04:37:56;9.30;99.90
7002;DHT22;3541;53.230;10.518;2023-03-30T04:40:24;9.30;99.90
7002;DHT22;3541;53.230;10.518;2023-03-30T04:42:53;9.30;99.90
7002;DHT22;3541;53.230;10.518;2023-03-30T04:45:19;9.30;99.90
7002;DHT22;3541;53.230;10.518;2023-03-30T04:47:46;9.30;99.90
7002;DHT22;3541;53.230;10.518;2023-03-30T04:50:13;9.30;99.90
7002;DHT22;3541;53.230;10.518;2023-03-30T04:52:40;9.30;99.90
7002;DHT22;3541;53.230;10.518;2023-03-30T04:55:08;9.30;99.90
7002;DHT22;3541;53.230;10.518;2023-03-30T04:57:36;9.30;99.90
7002;DHT22;3541;53.230;10.518;2023-03-30T05:00:06;9.30;99.90
7002;DHT22;3541;53.230;10.518;2023-03-30T05:02:33;9.30;99.90
7002;DHT22;3541;53.230;10.518;2023-03-30T05:05:00;9.30;99.90
7002;DHT22;3541;53.230;10.518;2023-03-30T05:07:27;9.30;99.90
7002;DHT22;3541;53.230;10.518;2023-03-30T05:09:53;9.30;99.90
7002;DHT22;3541;53.230;10.518;2023-03-30T05:12:20;9.30;99.90
7002;DHT22;3541;53.230;10.518;2023-03-30T05:14:46;9.30;99.90
7002;DHT22;3541;53.230;10.518;2023-03-30T05:17:14;9.30;99.90
7002;DHT22;3541;53.230;10.518;2023-03-30T05:19:41;9.30;99.90
7002;DHT22;3541;53.230;10.518;2023-03-30T05:22:07;9.30;99.90
7002;DHT22;3541;53.230;10.518;2023-03-30T05:24:34;9.30;99.90
7002;DHT22;3541;53.230;10.518;2023-03-30T05:27:01;9.30;99.90
7002;DHT22;3541;53.230;10.518;2023-03-30T05:29:29;9.40;99.90
7002;DHT22;3541;53.230;10.518;2023-03-30T05:31:56;9.40;99.90
7002;DHT22;3541;53.230;10.518;2023-03-30T05:34:23;9.40;99.90
7002;DHT22;3541;53.230;10.518;2023-03-30T05:36:50;9.40;99.90
7002;DHT22;3541;53.230;10.518;2023-03-30T05:39:17;9.40;99.90
7002;DHT22;3541;53.230;10.518;2023-03-30T05:41:44;9.40;99.90
7002;DHT22;3541;53.230;10.518;2023-03-30T05:44:10;9.50;99.90
7002;DHT22;3541;53.230;10.518;2023-03-30T05:46:37;9.50;99.90
7002;DHT22;3541;53.230;10.518;2023-03-30T05:49:04;9.50;99.90
7002;DHT22;3541;53.230;10.518;2023-03-30T05:51:32;9.50;99.90
7002;DHT22;3541;53.230;10.518;2023-03-30T05:53:58;9.50;99.90
7002;DHT22;3541;53.230;10.518;2023-03-30T05:56:25;9.50;99.90
7002;DHT22;3541;53.230;10.518;2023-03-30T05:58:51;9.60;99.90
7002;DHT22;3541;53.230;10.518;2023-03-30T06:01:18;9.60;99.90
7002;DHT22;3541;53.230;10.518;2023-03-30T06:03:45;9.50;99.90
7002;DHT22;3541;53.230;10.518;2023-03-30T06:06:12;9.60;99.90
7002;DHT22;3541;53.230;10.518;2023-03-30T06:08:40;9.60;99.90
7002;DHT22;3541;53.230;10.518;2023-03-30T06:11:07;9.60;99.90
7002;DHT22;3541;53.230;10.518;2023-03-30T06:13:34;9.70;99.90
7002;DHT22;3541;53.230;10.518;2023-03-30T06:16:00;9.70;99.90
7002;DHT22;3541;53.230;10.518;2023-03-30T06:18:27;9.70;99.90
7002;DHT22;3541;53.230;10.518;2023-03-30T06:20:53;9.70;99.90
7002;DHT22;3541;53.230;10.518;2023-03-30T06:23:20;9.70;99.90
7002;DHT22;3541;53.230;10.518;2023-03-30T06:25:48;9.70;99.90
7002;DHT22;3541;53.230;10.518;2023-03-30T06:28:17;9.70;99.90
7002;DHT22;3541;53.230;10.518;2023-03-30T06:30:44;9.80;99.90
7002;DHT22;3541;53.230;10.518;2023-03-30T06:33:13;9.80;99.90
7002;DHT22;3541;53.230;10.518;2023-03-30T06:35:44;9.80;99.90
7002;DHT22;3541;53.230;10.518;2023-03-30T06:38:11;9.80;99.90
7002;DHT22;3541;53.230;10.518;2023-03-30T06:40:37;9.80;99.90
7002;DHT22;3541;53.230;10.518;2023-03-30T06:43:06;9.90;99.90
7002;DHT22;3541;53.230;10.518;2023-03-30T06:45:33;9.90;99.90
7002;DHT22;3541;53.230;10.518;2023-03-30T06:48:00;9.90;99.90
7002;DHT22;3541;53.230;10.518;2023-03-30T06:50:27;9.90;99.90
7002;DHT22;3541;53.230;10.518;2023-03-30T06:52:53;9.90;99.90
7002;DHT22;3541;53.230;10.518;2023-03-30T06:55:20;9.90;99.90
7002;DHT22;3541;53.230;10.518;2023-03-30T06:57:46;10.00;99.90
7002;DHT22;3541;53.230;10.518;2023-03-30T07:00:15;10.00;99.90
7002;DHT22;3541;53.230;10.518;2023-03-30T07:02:43;10.00;99.90
7002;DHT22;3541;53.230;10.518;2023-03-30T07:05:09;10.10;99.90
7002;DHT22;3541;53.230;10.518;2023-03-30T07:07:37;10.10;99.90
7002;DHT22;3541;53.230;10.518;2023-03-30T07:10:06;10.10;99.90
7002;DHT22;3541;53.230;10.518;2023-03-30T07:12:34;10.20;99.90
7002;DHT22;3541;53.230;10.518;2023-03-30T07:15:01;10.20;99.90
7002;DHT22;3541;53.230;10.518;2023-03-30T07:17:29;10.30;99.90
7002;DHT22;3541;53.230;10.518;2023-03-30T07:19:55;10.30;99.90
7002;DHT22;3541;53.230;10.518;2023-03-30T07:22:22;10.30;99.90
7002;DHT22;3541;53.230;10.518;2023-03-30T07:24:48;10.40;99.90
7002;DHT22;3541;53.230;10.518;2023-03-30T07:27:15;10.50;99.90
7002;DHT22;3541;53.230;10.518;2023-03-30T07:29:42;10.50;99.90
7002;DHT22;3541;53.230;10.518;2023-03-30T07:32:08;10.70;99.90
7002;DHT22;3541;53.230;10.518;2023-03-30T07:34:36;10.80;99.90
7002;DHT22;3541;53.230;10.518;2023-03-30T07:37:03;10.80;99.90
7002;DHT22;3541;53.230;10.518;2023-03-30T07:39:30;10.90;99.90
7002;DHT22;3541;53.230;10.518;2023-03-30T07:41:57;10.90;99.90
7002;DHT22;3541;53.230;10.518;2023-03-30T07:44:23;11.00;99.90
7002;DHT22;3541;53.230;10.518;2023-03-30T07:46:53;11.00;99.90
7002;DHT22;3541;53.230;10.518;2023-03-30T07:49:20;11.10;99.90
7002;DHT22;3541;53.230;10.518;2023-03-30T07:51:48;11.10;99.90
7002;DHT22;3541;53.230;10.518;2023-03-30T07:54:15;11.20;99.90
7002;DHT22;3541;53.230;10.518;2023-03-30T07:56:41;11.20;99.90
7002;DHT22;3541;53.230;10.518;2023-03-30T07:59:09;11.20;99.90
7002;DHT22;3541;53.230;10.518;2023-03-30T08:01:37;11.20;99.90
7002;DHT22;3541;53.230;10.518;2023-03-30T08:04:04;11.30;99.90
7002;DHT22;3541;53.230;10.518;2023-03-30T08:06:31;11.30;99.90
7002;DHT22;3541;53.230;10.518;2023-03-30T08:08:59;11.30;99.90
7002;DHT22;3541;53.230;10.518;2023-03-30T08:11:27;11.30;99.90
7002;DHT22;3541;53.230;10.518;2023-03-30T08:13:53;11.30;99.90
7002;DHT22;3541;53.230;10.518;2023-03-30T08:16:20;11.40;99.90
7002;DHT22;3541;53.230;10.518;2023-03-30T08:18:46;11.40;99.90
7002;DHT22;3541;53.230;10.518;2023-03-30T08:21:13;11.40;99.90
7002;DHT22;3541;53.230;10.518;2023-03-30T08:23:39;11.40;99.90
7002;DHT22;3541;53.230;10.518;2023-03-30T08:26:07;11.50;99.90
7002;DHT22;3541;53.230;10.518;2023-03-30T08:28:34;11.50;99.90
7002;DHT22;3541;53.230;10.518;2023-03-30T08:31:04;11.60;99.90
7002;DHT22;3541;53.230;10.518;2023-03-30T08:33:31;11.70;99.90
7002;DHT22;3541;53.230;10.518;2023-03-30T08:35:57;11.70;99.90
7002;DHT22;3541;53.230;10.518;2023-03-30T08:38:24;11.70;99.90
7002;DHT22;3541;53.230;10.518;2023-03-30T08:40:51;11.80;99.90
7002;DHT22;3541;53.230;10.518;2023-03-30T08:43:39;11.80;99.90
7002;DHT22;3541;53.230;10.518;2023-03-30T08:46:13;11.90;99.90
7002;DHT22;3541;53.230;10.518;2023-03-30T08:48:41;12.00;99.90
7002;DHT22;3541;53.230;10.518;2023-03-30T08:51:17;12.00;99.90
7002;DHT22;3541;53.230;10.518;2023-03-30T08:53:46;12.00;99.90
7002;DHT22;3541;53.230;10.518;2023-03-30T08:56:16;12.10;99.90
7002;DHT22;3541;53.230;10.518;2023-03-30T08:58:51;12.10;99.90
7002;DHT22;3541;53.230;10.518;2023-03-30T09:01:24;12.10;99.90
7002;DHT22;3541;53.230;10.518;2023-03-30T09:04:01;12.20;99.90
7002;DHT22;3541;53.230;10.518;2023-03-30T09:06:39;12.20;99.90
7002;DHT22;3541;53.230;10.518;2023-03-30T09:09:11;12.40;99.90
7002;DHT22;3541;53.230;10.518;2023-03-30T09:11:38;12.50;99.90
7002;DHT22;3541;53.230;10.518;2023-03-30T09:14:11;12.60;99.90
7002;DHT22;3541;53.230;10.518;2023-03-30T09:16:45;12.70;99.90
7002;DHT22;3541;53.230;10.518;2023-03-30T09:19:20;12.80;99.90
7002;DHT22;3541;53.230;10.518;2023-03-30T09:21:49;12.80;99.90
7002;DHT22;3541;53.230;10.518;2023-03-30T09:24:22;13.00;99.90
7002;DHT22;3541;53.230;10.518;2023-03-30T09:26:53;13.00;99.90
7002;DHT22;3541;53.230;10.518;2023-03-30T09:29:25;13.00;99.90
7002;DHT22;3541;53.230;10.518;2023-03-30T09:31:58;13.00;99.90
7002;DHT22;3541;53.230;10.518;2023-03-30T09:34:32;13.10;99.90
7002;DHT22;3541;53.230;10.518;2023-03-30T09:37:04;13.10;99.90
7002;DHT22;3541;53.230;10.518;2023-03-30T09:39:33;13.20;99.90
7002;DHT22;3541;53.230;10.518;2023-03-30T09:42:10;13.20;99.90
7002;DHT22;3541;53.230;10.518;2023-03-30T09:44:44;13.30;99.90
7002;DHT22;3541;53.230;10.518;2023-03-30T09:47:20;13.40;99.90
7002;DHT22;3541;53.230;10.518;2023-03-30T09:49:54;13.50;99.90
7002;DHT22;3541;53.230;10.518;2023-03-30T09:52:23;13.70;99.90
7002;DHT22;3541;53.230;10.518;2023-03-30T09:54:50;13.70;99.90
7002;DHT22;3541;53.230;10.518;2023-03-30T09:57:28;13.80;99.90
7002;DHT22;3541;53.230;10.518;2023-03-30T09:59:58;13.70;99.90
7002;DHT22;3541;53.230;10.518;2023-03-30T10:02:27;13.80;99.90
7002;DHT22;3541;53.230;10.518;2023-03-30T10:04:58;13.80;99.90
7002;DHT22;3541;53.230;10.518;2023-03-30T10:07:29;13.90;99.90
7002;DHT22;3541;53.230;10.518;2023-03-30T10:09:58;13.90;99.90
7002;DHT22;3541;53.230;10.518;2023-03-30T10:12:25;14.10;99.90
7002;DHT22;3541;53.230;10.518;2023-03-30T10:14:53;14.10;99.90
7002;DHT22;3541;53.230;10.518;2023-03-30T10:17:23;14.10;99.90
7002;DHT22;3541;53.230;10.518;2023-03-30T10:19:51;14.10;99.90
7002;DHT22;3541;53.230;10.518;2023-03-30T10:22:19;14.10;99.90
7002;DHT22;3541;53.230;10.518;2023-03-30T10:24:49;14.00;99.90
7002;DHT22;3541;53.230;10.518;2023-03-30T10:27:18;13.90;99.90
7002;DHT22;3541;53.230;10.518;2023-03-30T10:29:47;13.90;99.90
7002;DHT22;3541;53.230;10.518;2023-03-30T10:32:17;13.90;99.90
7002;DHT22;3541;53.230;10.518;2023-03-30T10:34:47;13.90;99.90
7002;DHT22;3541;53.230;10.518;2023-03-30T10:37:19;14.00;99.90
7002;DHT22;3541;53.230;10.518;2023-03-30T10:39:47;14.00;99.90
7002;DHT22;3541;53.230;10.518;2023-03-30T10:42:16;14.10;99.90
7002;DHT22;3541;53.230;10.518;2023-03-30T10:44:46;14.30;99.90
7002;DHT22;3541;53.230;10.518;2023-03-30T10:47:43;14.20;99.90
7002;DHT22;3541;53.230;10.518;2023-03-30T10:50:22;14.20;99.90
7002;DHT22;3541;53.230;10.518;2023-03-30T10:53:01;14.30;99.90
7002;DHT22;3541;53.230;10.518;2023-03-30T10:55:33;14.30;99.90
7002;DHT22;3541;53.230;10.518;2023-03-30T10:58:13;14.30;99.90
7002;DHT22;3541;53.230;10.518;2023-03-30T11:00:52;14.30;99.90
7002;DHT22;3541;53.230;10.518;2023-03-30T11:03:24;14.30;99.90
7002;DHT22;3541;53.230;10.518;2023-03-30T11:05:57;14.50;99.90
7002;DHT22;3541;53.230;10.518;2023-03-30T11:08:28;14.50;99.90
7002;DHT22;3541;53.230;10.518;2023-03-30T11:10:58;14.50;99.90
7002;DHT22;3541;53.230;10.518;2023-03-30T11:13:27;14.40;99.90
7002;DHT22;3541;53.230;10.518;2023-03-30T11:15:59;14.40;99.90
7002;DHT22;3541;53.230;10.518;2023-03-30T11:18:33;14.40;99.90
7002;DHT22;3541;53.230;10.518;2023-03-30T11:21:04;14.50;99.90
7002;DHT22;3541;53.230;10.518;2023-03-30T11:23:38;14.50;99.90
7002;DHT22;3541;53.230;10.518;2023-03-30T11:26:08;14.50;99.90
7002;DHT22;3541;53.230;10.518;2023-03-30T11:28:49;14.50;99.90
7002;DHT22;3541;53.230;10.518;2023-03-30T11:31:27;14.50;99.90
7002;DHT22;3541;53.230;10.518;2023-03-30T11:34:01;14.90;99.90
7002;DHT22;3541;53.230;10.518;2023-03-30T11:36:34;15.10;99.90
7002;DHT22;3541;53.230;10.518;2023-03-30T11:39:04;15.10;99.90
7002;DHT22;3541;53.230;10.518;2023-03-30T11:41:36;15.40;99.90
7002;DHT22;3541;53.230;10.518;2023-03-30T11:44:08;15.40;99.90
7002;DHT22;3541;53.230;10.518;2023-03-30T11:46:39;15.60;99.90
7002;DHT22;3541;53.230;10.518;2023-03-30T11:49:32;15.60;99.90
7002;DHT22;3541;53.230;10.518;2023-03-30T11:52:15;15.60;99.90
7002;DHT22;3541;53.230;10.518;2023-03-30T11:57:43;15.80;99.90
7002;DHT22;3541;53.230;10.518;2023-03-30T12:00:36;16.00;99.90
7002;DHT22;3541;53.230;10.518;2023-03-30T12:03:19;16.00;99.90
7002;DHT22;3541;53.230;10.518;2023-03-30T12:05:49;15.90;99.90
7002;DHT22;3541;53.230;10.518;2023-03-30T12:08:38;16.00;99.90
7002;DHT22;3541;53.230;10.518;2023-03-30T12:11:12;16.10;99.90
7002;DHT22;3541;53.230;10.518;2023-03-30T12:13:41;16.30;99.90
7002;DHT22;3541;53.230;10.518;2023-03-30T12:16:12;16.40;99.90
7002;DHT22;3541;53.230;10.518;2023-03-30T12:18:45;16.30;99.90
7002;DHT22;3541;53.230;10.518;2023-03-30T12:21:29;16.20;99.90
7002;DHT22;3541;53.230;10.518;2023-03-30T12:24:07;16.10;99.90
7002;DHT22;3541;53.230;10.518;2023-03-30T12:26:37;15.90;99.90
7002;DHT22;3541;53.230;10.518;2023-03-30T12:29:09;15.80;99.90
7002;DHT22;3541;53.230;10.518;2023-03-30T12:32:06;15.80;99.90
7002;DHT22;3541;53.230;10.518;2023-03-30T12:34:44;15.70;99.90
7002;DHT22;3541;53.230;10.518;2023-03-30T12:37:11;15.60;99.90
7002;DHT22;3541;53.230;10.518;2023-03-30T12:39:43;15.60;99.90
7002;DHT22;3541;53.230;10.518;2023-03-30T12:42:22;15.40;99.90
7002;DHT22;3541;53.230;10.518;2023-03-30T12:45:06;14.40;99.90
7002;DHT22;3541;53.230;10.518;2023-03-30T12:50:38;13.10;99.90
7002;DHT22;3541;53.230;10.518;2023-03-30T12:53:21;12.70;99.90
7002;DHT22;3541;53.230;10.518;2023-03-30T12:55:55;12.60;99.90
7002;DHT22;3541;53.230;10.518;2023-03-30T12:58:47;12.60;99.90
7002;DHT22;3541;53.230;10.518;2023-03-30T13:04:10;12.70;99.90
7002;DHT22;3541;53.230;10.518;2023-03-30T13:06:47;13.10;99.90
7002;DHT22;3541;53.230;10.518;2023-03-30T13:09:32;13.50;99.90
7002;DHT22;3541;53.230;10.518;2023-03-30T13:12:28;14.00;99.90
7002;DHT22;3541;53.230;10.518;2023-03-30T13:15:17;13.90;99.90
7002;DHT22;3541;53.230;10.518;2023-03-30T13:17:56;13.70;99.90
7002;DHT22;3541;53.230;10.518;2023-03-30T13:20:28;13.80;99.90
7002;DHT22;3541;53.230;10.518;2023-03-30T13:23:24;13.80;99.90
7002;DHT22;3541;53.230;10.518;2023-03-30T13:26:01;13.80;99.90
7002;DHT22;3541;53.230;10.518;2023-03-30T13:28:45;13.80;99.90
7002;DHT22;3541;53.230;10.518;2023-03-30T13:31:24;13.70;99.90
7002;DHT22;3541;53.230;10.518;2023-03-30T13:34:01;13.70;99.90
7002;DHT22;3541;53.230;10.518;2023-03-30T13:36:33;13.60;99.90
7002;DHT22;3541;53.230;10.518;2023-03-30T13:39:05;13.80;99.90
7002;DHT22;3541;53.230;10.518;2023-03-30T13:41:41;14.10;99.90
7002;DHT22;3541;53.230;10.518;2023-03-30T13:44:28;14.30;99.90
7002;DHT22;3541;53.230;10.518;2023-03-30T13:47:03;14.40;99.90
7002;DHT22;3541;53.230;10.518;2023-03-30T13:49:40;14.50;99.90
7002;DHT22;3541;53.230;10.518;2023-03-30T13:52:15;14.40;99.90
7002;DHT22;3541;53.230;10.518;2023-03-30T13:54:43;14.30;99.90
7002;DHT22;3541;53.230;10.518;2023-03-30T13:57:16;14.20;99.90
7002;DHT22;3541;53.230;10.518;2023-03-30T13:59:50;14.30;99.90
7002;DHT22;3541;53.230;10.518;2023-03-30T14:02:18;14.40;99.90
7002;DHT22;3541;53.230;10.518;2023-03-30T14:04:46;14.50;99.90
7002;DHT22;3541;53.230;10.518;2023-03-30T14:07:16;14.50;99.90
7002;DHT22;3541;53.230;10.518;2023-03-30T14:10:01;14.40;99.90
7002;DHT22;3541;53.230;10.518;2023-03-30T14:12:30;14.30;99.90
7002;DHT22;3541;53.230;10.518;2023-03-30T14:14:58;14.20;99.90
7002;DHT22;3541;53.230;10.518;2023-03-30T14:17:25;14.10;99.90
7002;DHT22;3541;53.230;10.518;2023-03-30T14:20:02;14.20;99.90
7002;DHT22;3541;53.230;10.518;2023-03-30T14:22:37;14.30;99.90
7002;DHT22;3541;53.230;10.518;2023-03-30T14:25:21;14.40;99.90
7002;DHT22;3541;53.230;10.518;2023-03-30T14:27:48;14.50;99.90
7002;DHT22;3541;53.230;10.518;2023-03-30T14:30:19;14.30;99.90
7002;DHT22;3541;53.230;10.518;2023-03-30T14:32:46;14.30;99.90
7002;DHT22;3541;53.230;10.518;2023-03-30T14:35:15;14.20;99.90
7002;DHT22;3541;53.230;10.518;2023-03-30T14:37:42;14.50;99.90
7002;DHT22;3541;53.230;10.518;2023-03-30T14:40:13;14.80;99.90
7002;DHT22;3541;53.230;10.518;2023-03-30T14:42:41;15.10;99.90
7002;DHT22;3541;53.230;10.518;2023-03-30T14:45:08;15.50;99.90
7002;DHT22;3541;53.230;10.518;2023-03-30T14:47:38;15.70;99.90
7002;DHT22;3541;53.230;10.518;2023-03-30T14:50:06;16.00;99.90
7002;DHT22;3541;53.230;10.518;2023-03-30T14:52:39;16.20;99.90
7002;DHT22;3541;53.230;10.518;2023-03-30T14:55:07;16.20;99.90
7002;DHT22;3541;53.230;10.518;2023-03-30T14:57:38;16.10;99.90
7002;DHT22;3541;53.230;10.518;2023-03-30T15:00:10;16.20;99.90
7002;DHT22;3541;53.230;10.518;2023-03-30T15:02:48;16.30;99.90
7002;DHT22;3541;53.230;10.518;2023-03-30T15:05:16;16.40;99.90
7002;DHT22;3541;53.230;10.518;2023-03-30T15:07:45;16.50;99.90
7002;DHT22;3541;53.230;10.518;2023-03-30T15:10:24;16.50;99.90
7002;DHT22;3541;53.230;10.518;2023-03-30T15:12:53;16.70;99.90
7002;DHT22;3541;53.230;10.518;2023-03-30T15:15:24;16.40;99.90
7002;DHT22;3541;53.230;10.518;2023-03-30T15:17:54;16.20;99.90
7002;DHT22;3541;53.230;10.518;2023-03-30T15:20:23;16.10;99.90
7002;DHT22;3541;53.230;10.518;2023-03-30T15:22:51;16.40;99.90
7002;DHT22;3541;53.230;10.518;2023-03-30T15:25:19;16.80;99.90
7002;DHT22;3541;53.230;10.518;2023-03-30T15:27:51;16.80;99.90
7002;DHT22;3541;53.230;10.518;2023-03-30T15:30:27;16.80;99.90
7002;DHT22;3541;53.230;10.518;2023-03-30T15:32:56;16.50;99.90
7002;DHT22;3541;53.230;10.518;2023-03-30T15:35:25;16.20;99.90
7002;DHT22;3541;53.230;10.518;2023-03-30T15:37:54;16.00;99.90
7002;DHT22;3541;53.230;10.518;2023-03-30T15:40:33;15.90;99.90
7002;DHT22;3541;53.230;10.518;2023-03-30T15:43:18;15.90;99.90
7002;DHT22;3541;53.230;10.518;2023-03-30T15:45:50;16.00;99.90
7002;DHT22;3541;53.230;10.518;2023-03-30T15:48:21;15.90;99.90
7002;DHT22;3541;53.230;10.518;2023-03-30T15:50:53;15.90;99.90
7002;DHT22;3541;53.230;10.518;2023-03-30T15:53:31;15.70;99.90
7002;DHT22;3541;53.230;10.518;2023-03-30T15:55:58;15.60;99.90
7002;DHT22;3541;53.230;10.518;2023-03-30T15:58:26;15.50;99.90
7002;DHT22;3541;53.230;10.518;2023-03-30T16:00:53;15.50;99.90
7002;DHT22;3541;53.230;10.518;2023-03-30T16:03:33;15.50;99.90
7002;DHT22;3541;53.230;10.518;2023-03-30T16:06:01;15.50;99.90
7002;DHT22;3541;53.230;10.518;2023-03-30T16:08:27;15.50;99.90
7002;DHT22;3541;53.230;10.518;2023-03-30T16:10:54;15.40;99.90
7002;DHT22;3541;53.230;10.518;2023-03-30T16:13:21;15.30;99.90
7002;DHT22;3541;53.230;10.518;2023-03-30T16:15:48;15.30;99.90
7002;DHT22;3541;53.230;10.518;2023-03-30T16:18:14;15.10;99.90
7002;DHT22;3541;53.230;10.518;2023-03-30T16:20:43;15.10;99.90
7002;DHT22;3541;53.230;10.518;2023-03-30T16:23:09;15.00;99.90
7002;DHT22;3541;53.230;10.518;2023-03-30T16:25:36;15.00;99.90
7002;DHT22;3541;53.230;10.518;2023-03-30T16:28:02;15.00;99.90